sensor_id;sensor_type;location;lat;lon;timestamp;temperature;humidity
1778;DHT22;886;50.082;8.222;2023-04-08T00:02:23;10.20;99.90
1778;DHT22;886;50.082;8.222;2023-04-08T00:04:51;10.20;99.90
1778;DHT22;886;50.082;8.222;2023-04-08T00:07:17;10.20;99.90
1778;DHT22;886;50.082;8.222;2023-04-08T00:09:45;10.20;99.90
1778;DHT22;886;50.082;8.222;2023-04-08T00:12:13;10.20;99.90
1778;DHT22;886;50.082;8.222;2023-04-08T00:14:41;10.10;99.90
1778;DHT22;886;50.082;8.222;2023-04-08T00:17:08;10.20;99.90
1778;DHT22;886;50.082;8.222;2023-04-08T00:19:36;10.20;99.90
1778;DHT22;886;50.082;8.222;2023-04-08T00:22:03;10.20;99.90
1778;DHT22;886;50.082;8.222;2023-04-08T00:24:31;10.20;99.90
1778;DHT22;886;50.082;8.222;2023-04-08T00:26:58;10.20;99.90
1778;DHT22;886;50.082;8.222;2023-04-08T00:29:27;10.10;99.90
1778;DHT22;886;50.082;8.222;2023-04-08T00:31:53;10.20;99.90
1778;DHT22;886;50.082;8.222;2023-04-08T00:34:20;10.10;99.90
1778;DHT22;886;50.082;8.222;2023-04-08T00:36:48;10.20;99.90
1778;DHT22;886;50.082;8.222;2023-04-08T00:39:15;10.20;99.90
1778;DHT22;886;50.082;8.222;2023-04-08T00:41:42;10.20;99.90
1778;DHT22;886;50.082;8.222;2023-04-08T00:44:10;10.20;99.90
1778;DHT22;886;50.082;8.222;2023-04-08T00:46:39;10.20;99.90
1778;DHT22;886;50.082;8.222;2023-04-08T00:49:07;10.10;99.90
1778;DHT22;886;50.082;8.222;2023-04-08T00:51:37;10.10;99.90
1778;DHT22;886;50.082;8.222;2023-04-08T00:54:06;10.10;99.90
1778;DHT22;886;50.082;8.222;2023-04-08T00:56:35;10.10;99.90
1778;DHT22;886;50.082;8.222;2023-04-08T00:59:03;10.10;99.90
1778;DHT22;886;50.082;8.222;2023-04-08T01:01:36;10.20;99.90
1778;DHT22;886;50.082;8.222;2023-04-08T01:04:18;10.20;99.90
1778;DHT22;886;50.082;8.222;2023-04-08T01:06:55;10.10;99.90
1778;DHT22;886;50.082;8.222;2023-04-08T01:09:29;10.10;99.90
1778;DHT22;886;50.082;8.222;2023-04-08T01:12:02;10.20;99.90
1778;DHT22;886;50.082;8.222;2023-04-08T01:14:34;10.10;99.90
1778;DHT22;886;50.082;8.222;2023-04-08T01:17:08;10.10;99.90
1778;DHT22;886;50.082;8.222;2023-04-08T01:19:38;10.00;99.90
1778;DHT22;886;50.082;8.222;2023-04-08T01:22:14;10.00;99.90
1778;DHT22;886;50.082;8.222;2023-04-08T01:24:49;10.00;99.90
1778;DHT22;886;50.082;8.222;2023-04-08T01:27:20;10.00;99.90
1778;DHT22;886;50.082;8.222;2023-04-08T01:29:48;10.00;99.90
1778;DHT22;886;50.082;8.222;2023-04-08T01:32:15;10.00;99.90
1778;DHT22;886;50.082;8.222;2023-04-08T01:34:44;10.00;99.90
1778;DHT22;886;50.082;8.222;2023-04-08T01:37:12;10.10;99.90
1778;DHT22;886;50.082;8.222;2023-04-08T01:39:41;10.10;99.90
1778;DHT22;886;50.082;8.222;2023-04-08T01:42:09;10.00;99.90
1778;DHT22;886;50.082;8.222;2023-04-08T01:44:39;10.10;99.90
1778;DHT22;886;50.082;8.222;2023-04-08T01:47:08;10.00;99.90
1778;DHT22;886;50.082;8.222;2023-04-08T01:49:36;10.00;99.90
1778;DHT22;886;50.082;8.222;2023-04-08T01:52:05;10.00;99.90
1778;DHT22;886;50.082;8.222;2023-04-08T01:54:35;10.00;99.90
1778;DHT22;886;50.082;8.222;2023-04-08T01:57:04;9.90;99.90
1778;DHT22;886;50.082;8.222;2023-04-08T01:59:35;10.00;99.90
1778;DHT22;886;50.082;8.222;2023-04-08T02:02:08;10.00;99.90
1778;DHT22;886;50.082;8.222;2023-04-08T02:04:36;10.00;99.90
1778;DHT22;886;50.082;8.222;2023-04-08T02:07:04;10.00;99.90
1778;DHT22;886;50.082;8.222;2023-04-08T02:09:32;10.00;99.90
1778;DHT22;886;50.082;8.222;2023-04-08T02:12:00;10.00;99.90
1778;DHT22;886;50.082;8.222;2023-04-08T02:14:28;10.00;99.90
1778;DHT22;886;50.082;8.222;2023-04-08T02:17:03;10.00;99.90
1778;DHT22;886;50.082;8.222;2023-04-08T02:19:38;10.10;99.90
1778;DHT22;886;50.082;8.222;2023-04-08T02:22:11;10.00;99.90
1778;DHT22;886;50.082;8.222;2023-04-08T02:24:45;10.00;99.90
1778;DHT22;886;50.082;8.222;2023-04-08T02:27:13;10.00;99.90
1778;DHT22;886;50.082;8.222;2023-04-08T02:29:41;10.00;99.90
1778;DHT22;886;50.082;8.222;2023-04-08T02:32:10;10.00;99.90
1778;DHT22;886;50.082;8.222;2023-04-08T02:34:39;10.00;99.90
1778;DHT22;886;50.082;8.222;2023-04-08T02:37:07;10.00;99.90
1778;DHT22;886;50.082;8.222;2023-04-08T02:39:35;10.00;99.90
1778;DHT22;886;50.082;8.222;2023-04-08T02:42:03;10.00;99.90
1778;DHT22;886;50.082;8.222;2023-04-08T02:44:31;10.00;99.90
1778;DHT22;886;50.082;8.222;2023-04-08T02:47:01;10.00;99.90
1778;DHT22;886;50.082;8.222;2023-04-08T02:49:30;9.90;99.90
1778;DHT22;886;50.082;8.222;2023-04-08T02:51:57;9.90;99.90
1778;DHT22;886;50.082;8.222;2023-04-08T02:54:24;9.90;99.90
1778;DHT22;886;50.082;8.222;2023-04-08T02:56:52;9.90;99.90
1778;DHT22;886;50.082;8.222;2023-04-08T02:59:19;9.90;99.90
1778;DHT22;886;50.082;8.222;2023-04-08T03:01:46;9.80;99.90
1778;DHT22;886;50.082;8.222;2023-04-08T03:04:14;9.80;99.90
1778;DHT22;886;50.082;8.222;2023-04-08T03:06:43;9.90;99.90
1778;DHT22;886;50.082;8.222;2023-04-08T03:09:10;9.90;99.90
1778;DHT22;886;50.082;8.222;2023-04-08T03:11:38;9.80;99.90
1778;DHT22;886;50.082;8.222;2023-04-08T03:14:05;9.80;99.90
1778;DHT22;886;50.082;8.222;2023-04-08T03:16:32;9.70;99.90
1778;DHT22;886;50.082;8.222;2023-04-08T03:19:00;9.80;99.90
1778;DHT22;886;50.082;8.222;2023-04-08T03:21:27;9.80;99.90
1778;DHT22;886;50.082;8.222;2023-04-08T03:23:58;9.70;99.90
1778;DHT22;886;50.082;8.222;2023-04-08T03:26:25;9.60;99.90
1778;DHT22;886;50.082;8.222;2023-04-08T03:28:53;9.60;99.90
1778;DHT22;886;50.082;8.222;2023-04-08T03:31:21;9.60;99.90
1778;DHT22;886;50.082;8.222;2023-04-08T03:33:48;9.60;99.90
1778;DHT22;886;50.082;8.222;2023-04-08T03:36:16;9.60;99.90
1778;DHT22;886;50.082;8.222;2023-04-08T03:38:43;9.50;99.90
1778;DHT22;886;50.082;8.222;2023-04-08T03:41:12;9.60;99.90
1778;DHT22;886;50.082;8.222;2023-04-08T03:43:40;9.60;99.90
1778;DHT22;886;50.082;8.222;2023-04-08T03:46:07;9.50;99.90
1778;DHT22;886;50.082;8.222;2023-04-08T03:48:35;9.50;99.90
1778;DHT22;886;50.082;8.222;2023-04-08T03:51:02;9.50;99.90
1778;DHT22;886;50.082;8.222;2023-04-08T03:53:29;9.40;99.90
1778;DHT22;886;50.082;8.222;2023-04-08T03:55:58;9.40;99.90
1778;DHT22;886;50.082;8.222;2023-04-08T03:58:30;9.30;99.90
1778;DHT22;886;50.082;8.222;2023-04-08T04:00:58;9.30;99.90
1778;DHT22;886;50.082;8.222;2023-04-08T04:03:25;9.30;99.90
1778;DHT22;886;50.082;8.222;2023-04-08T04:05:53;9.30;99.90
1778;DHT22;886;50.082;8.222;2023-04-08T04:08:23;9.20;99.90
1778;DHT22;886;50.082;8.222;2023-04-08T04:10:50;9.30;99.90
1778;DHT22;886;50.082;8.222;2023-04-08T04:13:18;9.20;99.90
1778;DHT22;886;50.082;8.222;2023-04-08T04:15:47;9.30;99.90
1778;DHT22;886;50.082;8.222;2023-04-08T04:18:15;9.10;99.90
1778;DHT22;886;50.082;8.222;2023-04-08T04:20:43;9.20;99.90
1778;DHT22;886;50.082;8.222;2023-04-08T04:23:10;9.20;99.90
1778;DHT22;886;50.082;8.222;2023-04-08T04:25:40;9.00;99.90
1778;DHT22;886;50.082;8.222;2023-04-08T04:28:07;9.10;99.90
1778;DHT22;886;50.082;8.222;2023-04-08T04:30:36;9.10;99.90
1778;DHT22;886;50.082;8.222;2023-04-08T04:33:06;9.10;99.90
1778;DHT22;886;50.082;8.222;2023-04-08T04:35:33;9.00;99.90
1778;DHT22;886;50.082;8.222;2023-04-08T04:38:01;9.00;99.90
1778;DHT22;886;50.082;8.222;2023-04-08T04:40:28;9.00;99.90
1778;DHT22;886;50.082;8.222;2023-04-08T04:43:12;9.00;99.90
1778;DHT22;886;50.082;8.222;2023-04-08T04:45:40;9.00;99.90
1778;DHT22;886;50.082;8.222;2023-04-08T04:48:09;9.00;99.90
1778;DHT22;886;50.082;8.222;2023-04-08T04:50:36;9.00;99.90
1778;DHT22;886;50.082;8.222;2023-04-08T04:53:03;9.00;99.90
1778;DHT22;886;50.082;8.222;2023-04-08T04:55:31;9.00;99.90
1778;DHT22;886;50.082;8.222;2023-04-08T04:57:58;9.00;99.90
1778;DHT22;886;50.082;8.222;2023-04-08T05:00:26;9.00;99.90
1778;DHT22;886;50.082;8.222;2023-04-08T05:02:53;9.00;99.90
1778;DHT22;886;50.082;8.222;2023-04-08T05:05:22;9.00;99.90
1778;DHT22;886;50.082;8.222;2023-04-08T05:07:49;9.00;99.90
1778;DHT22;886;50.082;8.222;2023-04-08T05:10:17;8.90;99.90
1778;DHT22;886;50.082;8.222;2023-04-08T05:12:44;8.90;99.90
1778;DHT22;886;50.082;8.222;2023-04-08T05:15:11;8.90;99.90
1778;DHT22;886;50.082;8.222;2023-04-08T05:17:38;9.00;99.90
1778;DHT22;886;50.082;8.222;2023-04-08T05:20:06;9.00;99.90
1778;DHT22;886;50.082;8.222;2023-04-08T05:22:36;9.00;99.90
1778;DHT22;886;50.082;8.222;2023-04-08T05:25:04;9.00;99.90
1778;DHT22;886;50.082;8.222;2023-04-08T05:27:32;9.10;99.90
1778;DHT22;886;50.082;8.222;2023-04-08T05:29:59;9.00;99.90
1778;DHT22;886;50.082;8.222;2023-04-08T05:32:27;9.00;99.90
1778;DHT22;886;50.082;8.222;2023-04-08T05:34:56;8.90;99.90
1778;DHT22;886;50.082;8.222;2023-04-08T05:37:24;9.00;99.90
1778;DHT22;886;50.082;8.222;2023-04-08T05:39:53;9.00;99.90
1778;DHT22;886;50.082;8.222;2023-04-08T05:42:20;9.00;99.90
1778;DHT22;886;50.082;8.222;2023-04-08T05:44:48;8.90;99.90
1778;DHT22;886;50.082;8.222;2023-04-08T05:47:15;9.00;99.90
1778;DHT22;886;50.082;8.222;2023-04-08T05:49:42;9.00;99.90
1778;DHT22;886;50.082;8.222;2023-04-08T05:52:10;8.90;99.90
1778;DHT22;886;50.082;8.222;2023-04-08T05:54:37;8.90;99.90
1778;DHT22;886;50.082;8.222;2023-04-08T05:57:06;8.80;99.90
1778;DHT22;886;50.082;8.222;2023-04-08T05:59:50;8.70;99.90
1778;DHT22;886;50.082;8.222;2023-04-08T06:02:19;8.80;99.90
1778;DHT22;886;50.082;8.222;2023-04-08T06:04:49;8.80;99.90
1778;DHT22;886;50.082;8.222;2023-04-08T06:07:16;8.70;99.90
1778;DHT22;886;50.082;8.222;2023-04-08T06:09:44;8.70;99.90
1778;DHT22;886;50.082;8.222;2023-04-08T06:12:12;8.70;99.90
1778;DHT22;886;50.082;8.222;2023-04-08T06:14:39;8.70;99.90
1778;DHT22;886;50.082;8.222;2023-04-08T06:17:09;8.80;99.90
1778;DHT22;886;50.082;8.222;2023-04-08T06:19:37;8.80;99.90
1778;DHT22;886;50.082;8.222;2023-04-08T06:22:04;8.80;99.90
1778;DHT22;886;50.082;8.222;2023-04-08T06:24:31;8.80;99.90
1778;DHT22;886;50.082;8.222;2023-04-08T06:26:59;8.90;99.90
1778;DHT22;886;50.082;8.222;2023-04-08T06:29:28;8.90;99.90
1778;DHT22;886;50.082;8.222;2023-04-08T06:31:56;8.90;99.90
1778;DHT22;886;50.082;8.222;2023-04-08T06:34:23;8.90;99.90
1778;DHT22;886;50.082;8.222;2023-04-08T06:36:51;8.90;99.90
1778;DHT22;886;50.082;8.222;2023-04-08T06:39:18;9.00;99.90
1778;DHT22;886;50.082;8.222;2023-04-08T06:41:54;9.00;99.90
1778;DHT22;886;50.082;8.222;2023-04-08T06:44:22;9.00;99.90
1778;DHT22;886;50.082;8.222;2023-04-08T06:46:51;9.10;99.90
1778;DHT22;886;50.082;8.222;2023-04-08T06:49:18;9.10;99.90
1778;DHT22;886;50.082;8.222;2023-04-08T06:51:45;9.20;99.90
1778;DHT22;886;50.082;8.222;2023-04-08T06:54:13;9.10;99.90
1778;DHT22;886;50.082;8.222;2023-04-08T06:56:40;9.10;99.90
1778;DHT22;886;50.082;8.222;2023-04-08T06:59:07;9.20;99.90
1778;DHT22;886;50.082;8.222;2023-04-08T07:01:35;9.30;99.90
1778;DHT22;886;50.082;8.222;2023-04-08T07:04:04;9.30;99.90
1778;DHT22;886;50.082;8.222;2023-04-08T07:06:32;9.30;99.90
1778;DHT22;886;50.082;8.222;2023-04-08T07:09:00;9.30;99.90
1778;DHT22;886;50.082;8.222;2023-04-08T07:11:27;9.40;99.90
1778;DHT22;886;50.082;8.222;2023-04-08T07:13:54;9.50;99.90
1778;DHT22;886;50.082;8.222;2023-04-08T07:16:21;9.50;99.90
1778;DHT22;886;50.082;8.222;2023-04-08T07:18:48;9.60;99.90
1778;DHT22;886;50.082;8.222;2023-04-08T07:21:19;9.60;99.90
1778;DHT22;886;50.082;8.222;2023-04-08T07:23:46;9.70;99.90
1778;DHT22;886;50.082;8.222;2023-04-08T07:26:14;9.70;99.90
1778;DHT22;886;50.082;8.222;2023-04-08T07:28:41;9.80;99.90
1778;DHT22;886;50.082;8.222;2023-04-08T07:31:10;9.80;99.90
1778;DHT22;886;50.082;8.222;2023-04-08T07:33:38;9.90;99.90
1778;DHT22;886;50.082;8.222;2023-04-08T07:36:06;9.90;99.90
1778;DHT22;886;50.082;8.222;2023-04-08T07:38:36;9.90;99.90
1778;DHT22;886;50.082;8.222;2023-04-08T07:41:03;9.90;99.90
1778;DHT22;886;50.082;8.222;2023-04-08T07:43:32;10.00;99.90
1778;DHT22;886;50.082;8.222;2023-04-08T07:46:03;9.90;99.90
1778;DHT22;886;50.082;8.222;2023-04-08T07:48:32;9.80;99.90
1778;DHT22;886;50.082;8.222;2023-04-08T07:51:03;9.80;99.90
1778;DHT22;886;50.082;8.222;2023-04-08T07:53:38;9.80;99.90
1778;DHT22;886;50.082;8.222;2023-04-08T07:56:10;9.90;99.90
1778;DHT22;886;50.082;8.222;2023-04-08T07:58:38;9.80;99.90
1778;DHT22;886;50.082;8.222;2023-04-08T08:01:16;9.90;99.90
1778;DHT22;886;50.082;8.222;2023-04-08T08:03:44;10.00;99.90
1778;DHT22;886;50.082;8.222;2023-04-08T08:06:13;10.00;99.90
1778;DHT22;886;50.082;8.222;2023-04-08T08:08:42;10.10;99.90
1778;DHT22;886;50.082;8.222;2023-04-08T08:11:10;10.10;99.90
1778;DHT22;886;50.082;8.222;2023-04-08T08:13:37;10.20;99.90
1778;DHT22;886;50.082;8.222;2023-04-08T08:16:05;10.20;99.90
1778;DHT22;886;50.082;8.222;2023-04-08T08:18:35;10.30;99.90
1778;DHT22;886;50.082;8.222;2023-04-08T08:21:03;10.30;99.90
1778;DHT22;886;50.082;8.222;2023-04-08T08:23:30;10.30;99.90
1778;DHT22;886;50.082;8.222;2023-04-08T08:26:05;10.40;99.90
1778;DHT22;886;50.082;8.222;2023-04-08T08:28:36;10.30;99.90
1778;DHT22;886;50.082;8.222;2023-04-08T08:31:03;10.20;99.90
1778;DHT22;886;50.082;8.222;2023-04-08T08:33:32;10.20;99.90
1778;DHT22;886;50.082;8.222;2023-04-08T08:35:59;10.20;99.90
1778;DHT22;886;50.082;8.222;2023-04-08T08:38:27;10.10;99.90
1778;DHT22;886;50.082;8.222;2023-04-08T08:40:55;10.10;99.90
1778;DHT22;886;50.082;8.222;2023-04-08T08:43:24;10.30;99.90
1778;DHT22;886;50.082;8.222;2023-04-08T08:45:52;10.30;99.90
1778;DHT22;886;50.082;8.222;2023-04-08T08:48:20;10.20;99.90
1778;DHT22;886;50.082;8.222;2023-04-08T08:50:48;10.30;99.90
1778;DHT22;886;50.082;8.222;2023-04-08T08:53:15;10.30;99.90
1778;DHT22;886;50.082;8.222;2023-04-08T08:55:42;10.20;99.90
1778;DHT22;886;50.082;8.222;2023-04-08T08:58:31;10.20;99.90
1778;DHT22;886;50.082;8.222;2023-04-08T09:00:59;10.20;99.90
1778;DHT22;886;50.082;8.222;2023-04-08T09:03:27;10.20;99.90
1778;DHT22;886;50.082;8.222;2023-04-08T09:06:17;10.30;99.90
1778;DHT22;886;50.082;8.222;2023-04-08T09:08:44;10.30;99.90
1778;DHT22;886;50.082;8.222;2023-04-08T09:11:14;10.30;99.90
1778;DHT22;886;50.082;8.222;2023-04-08T09:13:44;10.30;99.90
1778;DHT22;886;50.082;8.222;2023-04-08T09:16:13;10.30;99.90
1778;DHT22;886;50.082;8.222;2023-04-08T09:18:45;10.30;99.90
1778;DHT22;886;50.082;8.222;2023-04-08T09:21:16;10.30;99.90
1778;DHT22;886;50.082;8.222;2023-04-08T09:23:45;10.20;99.90
1778;DHT22;886;50.082;8.222;2023-04-08T09:26:16;10.30;99.90
1778;DHT22;886;50.082;8.222;2023-04-08T09:28:57;10.20;99.90
1778;DHT22;886;50.082;8.222;2023-04-08T09:31:38;10.30;99.90
1778;DHT22;886;50.082;8.222;2023-04-08T09:34:14;10.30;99.90
1778;DHT22;886;50.082;8.222;2023-04-08T09:36:43;10.20;99.90
1778;DHT22;886;50.082;8.222;2023-04-08T09:39:12;10.30;99.90
1778;DHT22;886;50.082;8.222;2023-04-08T09:41:43;10.30;99.90
1778;DHT22;886;50.082;8.222;2023-04-08T09:44:14;10.30;99.90
1778;DHT22;886;50.082;8.222;2023-04-08T09:46:55;10.20;99.90
1778;DHT22;886;50.082;8.222;2023-04-08T09:49:26;10.30;99.90
1778;DHT22;886;50.082;8.222;2023-04-08T09:52:01;10.30;99.90
1778;DHT22;886;50.082;8.222;2023-04-08T09:54:43;10.40;99.90
1778;DHT22;886;50.082;8.222;2023-04-08T09:57:20;10.50;99.90
1778;DHT22;886;50.082;8.222;2023-04-08T09:59:53;10.40;99.90
1778;DHT22;886;50.082;8.222;2023-04-08T10:02:29;10.40;99.90
1778;DHT22;886;50.082;8.222;2023-04-08T10:05:00;10.50;99.90
1778;DHT22;886;50.082;8.222;2023-04-08T10:07:34;10.50;99.90
1778;DHT22;886;50.082;8.222;2023-04-08T10:10:02;10.50;99.90
1778;DHT22;886;50.082;8.222;2023-04-08T10:12:30;10.50;99.90
1778;DHT22;886;50.082;8.222;2023-04-08T10:15:25;10.60;99.90
1778;DHT22;886;50.082;8.222;2023-04-08T10:17:55;10.60;99.90
1778;DHT22;886;50.082;8.222;2023-04-08T10:20:46;10.60;99.90
1778;DHT22;886;50.082;8.222;2023-04-08T10:23:16;10.60;99.90
1778;DHT22;886;50.082;8.222;2023-04-08T10:25:44;10.60;99.90
1778;DHT22;886;50.082;8.222;2023-04-08T10:28:24;10.70;99.90
1778;DHT22;886;50.082;8.222;2023-04-08T10:30:55;10.70;99.90
1778;DHT22;886;50.082;8.222;2023-04-08T10:33:31;10.80;99.90
1778;DHT22;886;50.082;8.222;2023-04-08T10:36:08;10.80;99.90
1778;DHT22;886;50.082;8.222;2023-04-08T10:38:38;10.80;99.90
1778;DHT22;886;50.082;8.222;2023-04-08T10:41:05;10.90;99.90
1778;DHT22;886;50.082;8.222;2023-04-08T10:43:34;10.90;99.90
1778;DHT22;886;50.082;8.222;2023-04-08T10:46:04;10.90;99.90
1778;DHT22;886;50.082;8.222;2023-04-08T10:48:31;11.00;99.90
1778;DHT22;886;50.082;8.222;2023-04-08T10:51:00;11.10;99.90
1778;DHT22;886;50.082;8.222;2023-04-08T10:53:29;11.10;99.90
1778;DHT22;886;50.082;8.222;2023-04-08T10:56:03;11.20;99.90
1778;DHT22;886;50.082;8.222;2023-04-08T10:58:35;11.20;99.90
1778;DHT22;886;50.082;8.222;2023-04-08T11:01:04;11.20;99.70
1778;DHT22;886;50.082;8.222;2023-04-08T11:03:33;11.20;99.40
1778;DHT22;886;50.082;8.222;2023-04-08T11:06:02;11.20;98.90
1778;DHT22;886;50.082;8.222;2023-04-08T11:08:30;11.30;98.70
1778;DHT22;886;50.082;8.222;2023-04-08T11:10:59;11.30;98.40
1778;DHT22;886;50.082;8.222;2023-04-08T11:13:39;11.30;97.50
1778;DHT22;886;50.082;8.222;2023-04-08T11:16:20;11.40;97.80
1778;DHT22;886;50.082;8.222;2023-04-08T11:18:49;11.40;97.80
1778;DHT22;886;50.082;8.222;2023-04-08T11:21:17;11.40;97.40
1778;DHT22;886;50.082;8.222;2023-04-08T11:23:44;11.50;97.60
1778;DHT22;886;50.082;8.222;2023-04-08T11:26:13;11.50;97.40
1778;DHT22;886;50.082;8.222;2023-04-08T11:28:41;11.60;97.30
1778;DHT22;886;50.082;8.222;2023-04-08T11:31:09;11.60;97.50
1778;DHT22;886;50.082;8.222;2023-04-08T11:33:44;11.80;97.30
1778;DHT22;886;50.082;8.222;2023-04-08T11:36:13;11.80;96.80
1778;DHT22;886;50.082;8.222;2023-04-08T11:38:41;11.90;97.00
1778;DHT22;886;50.082;8.222;2023-04-08T11:41:09;12.00;97.20
1778;DHT22;886;50.082;8.222;2023-04-08T11:43:38;11.90;96.80
1778;DHT22;886;50.082;8.222;2023-04-08T11:46:10;11.90;97.10
1778;DHT22;886;50.082;8.222;2023-04-08T11:48:39;11.90;97.10
1778;DHT22;886;50.082;8.222;2023-04-08T11:51:08;12.00;97.10
1778;DHT22;886;50.082;8.222;2023-04-08T11:53:35;12.00;96.80
1778;DHT22;886;50.082;8.222;2023-04-08T11:56:15;12.00;96.80
1778;DHT22;886;50.082;8.222;2023-04-08T11:58:44;12.10;97.00
1778;DHT22;886;50.082;8.222;2023-04-08T12:01:12;12.10;97.10
1778;DHT22;886;50.082;8.222;2023-04-08T12:03:55;12.20;97.30
1778;DHT22;886;50.082;8.222;2023-04-08T12:06:24;12.40;97.60
1778;DHT22;886;50.082;8.222;2023-04-08T12:08:54;12.40;97.10
1778;DHT22;886;50.082;8.222;2023-04-08T12:11:22;12.50;97.00
1778;DHT22;886;50.082;8.222;2023-04-08T12:13:50;12.60;96.70
1778;DHT22;886;50.082;8.222;2023-04-08T12:16:19;12.60;96.80
1778;DHT22;886;50.082;8.222;2023-04-08T12:18:47;12.50;97.00
1778;DHT22;886;50.082;8.222;2023-04-08T12:21:16;12.40;97.50
1778;DHT22;886;50.082;8.222;2023-04-08T12:23:43;12.50;97.70
1778;DHT22;886;50.082;8.222;2023-04-08T12:26:10;12.50;97.50
1778;DHT22;886;50.082;8.222;2023-04-08T12:28:39;12.50;97.70
1778;DHT22;886;50.082;8.222;2023-04-08T12:31:06;12.60;98.10
1778;DHT22;886;50.082;8.222;2023-04-08T12:33:34;12.50;98.00
1778;DHT22;886;50.082;8.222;2023-04-08T12:36:01;12.50;98.00
1778;DHT22;886;50.082;8.222;2023-04-08T12:38:30;12.60;98.10
1778;DHT22;886;50.082;8.222;2023-04-08T12:40:59;12.50;98.20
1778;DHT22;886;50.082;8.222;2023-04-08T12:43:26;12.50;98.20
1778;DHT22;886;50.082;8.222;2023-04-08T12:45:53;12.60;98.20
1778;DHT22;886;50.082;8.222;2023-04-08T12:48:21;12.60;98.10
1778;DHT22;886;50.082;8.222;2023-04-08T12:50:48;12.70;98.10
1778;DHT22;886;50.082;8.222;2023-04-08T12:53:35;12.70;98.10
1778;DHT22;886;50.082;8.222;2023-04-08T12:56:03;12.70;97.90
1778;DHT22;886;50.082;8.222;2023-04-08T12:58:30;12.70;97.90
1778;DHT22;886;50.082;8.222;2023-04-08T13:00:58;12.80;97.80
1778;DHT22;886;50.082;8.222;2023-04-08T13:03:27;12.70;98.10
1778;DHT22;886;50.082;8.222;2023-04-08T13:05:57;12.70;98.10
1778;DHT22;886;50.082;8.222;2023-04-08T13:08:25;12.70;98.30
1778;DHT22;886;50.082;8.222;2023-04-08T13:10:54;12.70;98.60
1778;DHT22;886;50.082;8.222;2023-04-08T13:13:21;12.60;98.50
1778;DHT22;886;50.082;8.222;2023-04-08T13:15:49;12.60;98.60
1778;DHT22;886;50.082;8.222;2023-04-08T13:18:16;12.60;98.70
1778;DHT22;886;50.082;8.222;2023-04-08T13:20:44;12.60;99.00
1778;DHT22;886;50.082;8.222;2023-04-08T13:23:12;12.70;98.90
1778;DHT22;886;50.082;8.222;2023-04-08T13:25:44;12.50;99.10
1778;DHT22;886;50.082;8.222;2023-04-08T13:28:13;12.60;99.20
1778;DHT22;886;50.082;8.222;2023-04-08T13:30:40;12.60;99.30
1778;DHT22;886;50.082;8.222;2023-04-08T13:33:08;12.60;99.30
1778;DHT22;886;50.082;8.222;2023-04-08T13:35:35;12.60;99.20
1778;DHT22;886;50.082;8.222;2023-04-08T13:38:02;12.70;99.10
1778;DHT22;886;50.082;8.222;2023-04-08T13:40:32;12.70;99.50
1778;DHT22;886;50.082;8.222;2023-04-08T13:43:00;12.80;99.50
1778;DHT22;886;50.082;8.222;2023-04-08T13:45:29;12.80;99.50
1778;DHT22;886;50.082;8.222;2023-04-08T13:47:56;12.80;99.10
1778;DHT22;886;50.082;8.222;2023-04-08T13:50:25;12.80;99.40
1778;DHT22;886;50.082;8.222;2023-04-08T13:52:53;12.90;99.60
1778;DHT22;886;50.082;8.222;2023-04-08T13:55:20;12.80;99.30
1778;DHT22;886;50.082;8.222;2023-04-08T13:57:48;12.90;99.20
1778;DHT22;886;50.082;8.222;2023-04-08T14:00:15;12.90;99.20
1778;DHT22;886;50.082;8.222;2023-04-08T14:02:44;12.90;98.90
1778;DHT22;886;50.082;8.222;2023-04-08T14:05:12;12.90;98.90
1778;DHT22;886;50.082;8.222;2023-04-08T14:07:40;13.00;99.00
1778;DHT22;886;50.082;8.222;2023-04-08T14:10:08;13.00;98.90
1778;DHT22;886;50.082;8.222;2023-04-08T14:12:36;13.00;98.90
1778;DHT22;886;50.082;8.222;2023-04-08T14:15:04;13.10;99.10
1778;DHT22;886;50.082;8.222;2023-04-08T14:17:31;13.20;99.00
1778;DHT22;886;50.082;8.222;2023-04-08T14:20:02;13.30;98.90
1778;DHT22;886;50.082;8.222;2023-04-08T14:22:32;13.20;98.70
1778;DHT22;886;50.082;8.222;2023-04-08T14:25:01;13.10;98.90
1778;DHT22;886;50.082;8.222;2023-04-08T14:27:30;13.00;99.10
1778;DHT22;886;50.082;8.222;2023-04-08T14:29:57;13.00;99.30
1778;DHT22;886;50.082;8.222;2023-04-08T14:32:24;12.90;99.50
1778;DHT22;886;50.082;8.222;2023-04-08T14:34:52;12.80;99.80
1778;DHT22;886;50.082;8.222;2023-04-08T14:37:21;12.80;99.80
1778;DHT22;886;50.082;8.222;2023-04-08T14:39:49;12.80;99.80
1778;DHT22;886;50.082;8.222;2023-04-08T14:42:16;12.80;99.90
1778;DHT22;886;50.082;8.222;2023-04-08T14:44:44;12.90;99.90
1778;DHT22;886;50.082;8.222;2023-04-08T14:47:11;12.90;99.70
1778;DHT22;886;50.082;8.222;2023-04-08T14:49:38;12.90;99.90
1778;DHT22;886;50.082;8.222;2023-04-08T14:52:06;12.80;99.90
1778;DHT22;886;50.082;8.222;2023-04-08T14:54:35;12.80;99.90
1778;DHT22;886;50.082;8.222;2023-04-08T14:57:04;12.80;99.90
1778;DHT22;886;50.082;8.222;2023-04-08T14:59:32;12.80;99.90
1778;DHT22;886;50.082;8.222;2023-04-08T15:01:59;12.70;99.90
1778;DHT22;886;50.082;8.222;2023-04-08T15:04:27;12.80;99.90
1778;DHT22;886;50.082;8.222;2023-04-08T15:06:54;12.80;99.90
1778;DHT22;886;50.082;8.222;2023-04-08T15:09:22;12.80;99.90
1778;DHT22;886;50.082;8.222;2023-04-08T15:11:54;12.80;99.90
1778;DHT22;886;50.082;8.222;2023-04-08T15:14:22;12.80;99.90
1778;DHT22;886;50.082;8.222;2023-04-08T15:16:50;12.80;99.90
1778;DHT22;886;50.082;8.222;2023-04-08T15:19:17;12.90;99.90
1778;DHT22;886;50.082;8.222;2023-04-08T15:21:46;12.80;99.90
1778;DHT22;886;50.082;8.222;2023-04-08T15:24:13;12.80;99.90
1778;DHT22;886;50.082;8.222;2023-04-08T15:26:40;12.80;99.90
1778;DHT22;886;50.082;8.222;2023-04-08T15:29:10;12.90;99.90
1778;DHT22;886;50.082;8.222;2023-04-08T15:31:37;12.90;99.90
1778;DHT22;886;50.082;8.222;2023-04-08T15:34:05;12.90;99.90
1778;DHT22;886;50.082;8.222;2023-04-08T15:36:33;12.90;99.90
1778;DHT22;886;50.082;8.222;2023-04-08T15:39:03;12.90;99.90
1778;DHT22;886;50.082;8.222;2023-04-08T15:41:30;12.90;99.90
1778;DHT22;886;50.082;8.222;2023-04-08T15:43:58;13.10;99.90
1778;DHT22;886;50.082;8.222;2023-04-08T15:46:26;13.10;99.90
1778;DHT22;886;50.082;8.222;2023-04-08T15:48:54;13.00;99.90
1778;DHT22;886;50.082;8.222;2023-04-08T15:51:21;13.00;99.90
1778;DHT22;886;50.082;8.222;2023-04-08T15:53:53;12.90;99.90
1778;DHT22;886;50.082;8.222;2023-04-08T15:56:20;12.90;99.90
1778;DHT22;886;50.082;8.222;2023-04-08T15:58:48;12.90;99.90
1778;DHT22;886;50.082;8.222;2023-04-08T16:01:16;12.90;99.90
1778;DHT22;886;50.082;8.222;2023-04-08T16:03:46;12.90;99.90
1778;DHT22;886;50.082;8.222;2023-04-08T16:06:15;12.90;99.90
1778;DHT22;886;50.082;8.222;2023-04-08T16:08:42;13.00;99.90
1778;DHT22;886;50.082;8.222;2023-04-08T16:11:12;13.00;99.90
1778;DHT22;886;50.082;8.222;2023-04-08T16:13:40;13.00;99.90
1778;DHT22;886;50.082;8.222;2023-04-08T16:16:08;13.00;99.90
1778;DHT22;886;50.082;8.222;2023-04-08T16:18:38;13.00;99.90
1778;DHT22;886;50.082;8.222;2023-04-08T16:21:09;12.90;99.90
1778;DHT22;886;50.082;8.222;2023-04-08T16:23:37;13.00;99.90
1778;DHT22;886;50.082;8.222;2023-04-08T16:26:04;12.90;99.90
1778;DHT22;886;50.082;8.222;2023-04-08T16:28:33;12.90;99.90
1778;DHT22;886;50.082;8.222;2023-04-08T16:31:01;12.80;99.90
1778;DHT22;886;50.082;8.222;2023-04-08T16:33:30;12.90;99.90
1778;DHT22;886;50.082;8.222;2023-04-08T16:35:59;12.90;99.90